Lake Panorama, Iowa
Current Conditions -  °F | °C
As of 8:35 AM on Friday 24 Oct 2014 (Local Time) from KPRO Reporting Station
Haze Haze  
Wind Chill: 59°   Ceiling: 200
Heat Index: 59°   Visibility: 1.2mi
Dew Point: 58°   Wind: 13mph
Humidity: 99%   Direction: 190°S
Pressure: 29.94"   Gusts: NA
Location:  41.6992°N, 94.332°W
Report Text: KPRO 241335Z AUTO 19011KT 1 1/4SM BR OVC002 15/15 A2994 RMK AO2 T01480146
Loading
Personal Weather Stations






























Interactive Weather Map
Tropical Storm Tracking
New forecast layout! Learn more

10-Day Weather Forecast

Advertisements
Track Severe Weather on mobile